createdAt,value
2019-02-05T00:00:33.758Z,96495.24
2019-02-05T00:01:37.721Z,96498.20
2019-02-05T00:02:41.308Z,96495.00
2019-02-05T00:03:45.274Z,96489.48
2019-02-05T00:04:48.759Z,96496.97
2019-02-05T00:05:52.654Z,96498.98
2019-02-05T00:06:56.164Z,96492.00
2019-02-05T00:07:59.828Z,96490.23
2019-02-05T00:09:04.894Z,96488.06
2019-02-05T00:10:09.828Z,96488.06
2019-02-05T00:11:13.384Z,96494.02
2019-02-05T00:12:16.948Z,96497.68
2019-02-05T00:13:20.532Z,96496.66
2019-02-05T00:14:24.156Z,96494.53
2019-02-05T00:15:27.572Z,96492.19
2019-02-05T00:16:31.033Z,96491.30
2019-02-05T00:17:34.767Z,96492.70
2019-02-05T00:18:38.346Z,96488.98
2019-02-05T00:19:41.781Z,96487.27
2019-02-05T00:20:45.805Z,96487.91
2019-02-05T00:21:49.325Z,96486.21
2019-02-05T00:22:52.829Z,96483.22
2019-02-05T00:23:56.262Z,96484.03
2019-02-05T00:24:59.695Z,96482.80
2019-02-05T00:26:06.366Z,96480.52
2019-02-05T00:27:08.475Z,96485.86
2019-02-05T00:28:12.073Z,96484.11
2019-02-05T00:29:15.513Z,96478.81
2019-02-05T00:30:19.192Z,96482.17
2019-02-05T00:31:22.820Z,96486.11
2019-02-05T00:32:26.739Z,96478.86
2019-02-05T00:33:30.312Z,96474.40
2019-02-05T00:34:33.819Z,96479.17
2019-02-05T00:35:37.401Z,96477.05
2019-02-05T00:36:40.862Z,96474.56
2019-02-05T00:37:44.382Z,96475.92
2019-02-05T00:38:47.825Z,96475.88
2019-02-05T00:39:51.322Z,96473.99
2019-02-05T00:40:54.832Z,96477.14
2019-02-05T00:41:58.292Z,96481.58
2019-02-05T00:43:01.865Z,96478.91
2019-02-05T00:44:05.437Z,96476.22
2019-02-05T00:45:12.259Z,96472.80
2019-02-05T00:46:16.134Z,96481.65
2019-02-05T00:47:19.655Z,96478.34
2019-02-05T00:48:23.151Z,96479.59
2019-02-05T00:49:26.585Z,96484.94
2019-02-05T00:50:30.159Z,96481.75
2019-02-05T00:51:33.660Z,96485.20
2019-02-05T00:52:37.190Z,96481.47
2019-02-05T00:53:40.741Z,96480.65
2019-02-05T00:54:44.165Z,96484.41
2019-02-05T00:55:47.670Z,96481.67
2019-02-05T00:56:51.167Z,96475.61
2019-02-05T00:57:54.764Z,96477.85
2019-02-05T00:58:58.199Z,96477.28
2019-02-05T01:00:01.815Z,96473.27
2019-02-05T01:01:06.080Z,96476.62
2019-02-05T01:02:09.667Z,96478.34
2019-02-05T01:03:13.301Z,96478.97
2019-02-05T01:04:16.693Z,96481.40
2019-02-05T01:05:20.356Z,96476.67
2019-02-05T01:06:24.100Z,96477.20
2019-02-05T01:07:27.540Z,96473.66
2019-02-05T01:08:31.059Z,96475.56
2019-02-05T01:09:34.664Z,96473.90
2019-02-05T01:10:38.164Z,96470.66
2019-02-05T01:11:41.612Z,96467.73
2019-02-05T01:12:45.105Z,96467.73
2019-02-05T01:13:48.834Z,96470.63
2019-02-05T01:14:52.470Z,96468.20
2019-02-05T01:15:55.979Z,96468.70
2019-02-05T01:16:59.485Z,96467.40
2019-02-05T01:18:02.916Z,96466.38
2019-02-05T01:19:06.441Z,96471.52
2019-02-05T01:20:12.906Z,96463.52
2019-02-05T01:21:16.492Z,96464.50
2019-02-05T01:22:19.943Z,96459.27
2019-02-05T01:23:23.396Z,96459.78
2019-02-05T01:24:26.850Z,96463.97
2019-02-05T01:25:30.375Z,96456.37
2019-02-05T01:26:33.879Z,96461.03
2019-02-05T01:27:37.377Z,96458.91
2019-02-05T01:28:41.127Z,96458.78
2019-02-05T01:29:44.646Z,96458.88
2019-02-05T01:30:48.088Z,96458.31
2019-02-05T01:31:51.654Z,96458.07
2019-02-05T01:32:55.331Z,96460.55
2019-02-05T01:33:58.765Z,96460.08
2019-02-05T01:35:02.293Z,96459.30
2019-02-05T01:36:05.864Z,96458.06
2019-02-05T01:37:09.306Z,96455.52
2019-02-05T01:38:12.823Z,96456.41
2019-02-05T01:39:16.257Z,96462.95
2019-02-05T01:40:21.750Z,96455.49
2019-02-05T01:41:25.357Z,96454.25
2019-02-05T01:42:29.108Z,96454.55
2019-02-05T01:43:32.816Z,96453.11
2019-02-05T01:44:36.282Z,96446.73
2019-02-05T01:45:39.719Z,96452.98
2019-02-05T01:46:43.185Z,96458.81
2019-02-05T01:47:46.759Z,96457.64
2019-02-05T01:48:50.285Z,96457.80
2019-02-05T01:49:53.739Z,96456.16
2019-02-05T01:50:57.312Z,96454.20
2019-02-05T01:52:00.789Z,96452.56
2019-02-05T01:53:04.196Z,96455.28
2019-02-05T01:54:07.701Z,96459.21
2019-02-05T01:55:12.005Z,96455.80
2019-02-05T01:56:15.789Z,96454.70
2019-02-05T01:57:19.395Z,96449.66
2019-02-05T01:58:22.831Z,96450.66
2019-02-05T01:59:26.297Z,96451.70
2019-02-05T02:00:35.001Z,96454.88
2019-02-05T02:01:38.589Z,96457.98
2019-02-05T02:02:42.166Z,96452.86
2019-02-05T02:03:45.700Z,96458.27
2019-02-05T02:04:49.219Z,96452.39
2019-02-05T02:05:52.726Z,96451.39
2019-02-05T02:06:56.242Z,96458.46
2019-02-05T02:07:59.781Z,96451.52
2019-02-05T02:09:04.625Z,96453.66
2019-02-05T02:10:14.050Z,96450.50
2019-02-05T02:11:17.626Z,96451.34
2019-02-05T02:12:21.337Z,96446.23
2019-02-05T02:13:25.204Z,96449.87
2019-02-05T02:14:28.649Z,96450.27
2019-02-05T02:15:32.222Z,96449.90
2019-02-05T02:16:35.826Z,96448.34
2019-02-05T02:17:39.389Z,96444.85
2019-02-05T02:18:42.902Z,96446.77
2019-02-05T02:19:46.510Z,96449.18
2019-02-05T02:20:49.945Z,96452.24
2019-02-05T02:21:53.396Z,96448.83
2019-02-05T02:22:56.987Z,96452.02
2019-02-05T02:24:00.427Z,96444.50
2019-02-05T02:25:04.625Z,96447.44
2019-02-05T02:26:08.409Z,96438.05
2019-02-05T02:27:11.874Z,96449.18
2019-02-05T02:28:15.398Z,96443.66
2019-02-05T02:29:18.869Z,96444.90
2019-02-05T02:30:27.723Z,96443.19
2019-02-05T02:31:31.291Z,96447.16
2019-02-05T02:32:34.794Z,96443.28
2019-02-05T02:33:38.318Z,96439.30
2019-02-05T02:34:41.767Z,96444.60
2019-02-05T02:35:45.278Z,96446.37
2019-02-05T02:36:48.713Z,96445.52
2019-02-05T02:37:52.281Z,96452.99
2019-02-05T02:38:55.729Z,96448.76
2019-02-05T02:39:59.164Z,96444.97
2019-02-05T02:41:02.942Z,96447.16
2019-02-05T02:42:06.444Z,96449.34
2019-02-05T02:43:09.878Z,96446.70
2019-02-05T02:44:13.390Z,96449.11
2019-02-05T02:45:17.064Z,96449.48
2019-02-05T02:46:20.502Z,96443.77
2019-02-05T02:47:23.932Z,96447.61
2019-02-05T02:48:27.375Z,96448.28
2019-02-05T02:49:30.829Z,96447.14
2019-02-05T02:50:34.383Z,96443.20
2019-02-05T02:51:37.887Z,96443.94
2019-02-05T02:52:41.472Z,96447.72
2019-02-05T02:53:45.066Z,96443.47
2019-02-05T02:54:48.863Z,96448.38
2019-02-05T02:55:52.453Z,96448.18
2019-02-05T02:57:04.526Z,96452.54
2019-02-05T02:58:01.191Z,96451.08
2019-02-05T02:59:04.874Z,96455.27
2019-02-05T03:00:11.513Z,96453.48
2019-02-05T03:01:14.977Z,96455.72
2019-02-05T03:02:18.518Z,96458.78
2019-02-05T03:03:22.010Z,96456.59
2019-02-05T03:04:25.455Z,96455.82
2019-02-05T03:05:28.921Z,96461.90
2019-02-05T03:06:32.347Z,96456.20
2019-02-05T03:07:35.864Z,96460.48
2019-02-05T03:08:39.620Z,96457.32
2019-02-05T03:09:43.147Z,96461.55
2019-02-05T03:10:46.603Z,96463.23
2019-02-05T03:11:50.039Z,96455.75
2019-02-05T03:12:54.122Z,96460.35
2019-02-05T03:13:57.554Z,96461.17
2019-02-05T03:15:00.993Z,96460.26
2019-02-05T03:16:05.203Z,96460.86
2019-02-05T03:17:08.635Z,96461.16
2019-02-05T03:18:12.074Z,96461.42
2019-02-05T03:19:15.585Z,96465.73
2019-02-05T03:20:19.432Z,96463.62
2019-02-05T03:21:22.896Z,96462.25
2019-02-05T03:22:26.356Z,96462.72
2019-02-05T03:23:29.790Z,96467.42
2019-02-05T03:24:33.386Z,96464.27
2019-02-05T03:25:36.894Z,96466.23
2019-02-05T03:26:40.355Z,96472.00
2019-02-05T03:27:43.794Z,96463.07
2019-02-05T03:28:47.228Z,96469.54
2019-02-05T03:29:50.684Z,96469.20
2019-02-05T03:30:54.164Z,96464.53
2019-02-05T03:31:58.004Z,96468.55
2019-02-05T03:33:01.707Z,96472.25
2019-02-05T03:34:05.412Z,96463.62
2019-02-05T03:35:09.793Z,96465.11
2019-02-05T03:36:13.383Z,96472.73
2019-02-05T03:37:16.851Z,96469.08
2019-02-05T03:38:20.299Z,96464.97
2019-02-05T03:39:23.748Z,96464.03
2019-02-05T03:40:30.399Z,96463.98
2019-02-05T03:41:33.949Z,96461.82
2019-02-05T03:42:37.396Z,96461.17
2019-02-05T03:43:41.086Z,96463.95
2019-02-05T03:44:44.587Z,96462.66
2019-02-05T03:45:48.438Z,96459.37
2019-02-05T03:46:52.211Z,96458.98
2019-02-05T03:48:01.755Z,96458.64
2019-02-05T03:49:05.312Z,96457.99
2019-02-05T03:50:09.049Z,96463.44
2019-02-05T03:51:18.173Z,96464.41
2019-02-05T03:52:23.140Z,96462.61
2019-02-05T03:53:32.464Z,96468.12
2019-02-05T03:54:41.994Z,96471.91
2019-02-05T03:55:57.284Z,96467.33
2019-02-05T03:57:30.725Z,96465.94
2019-02-05T03:58:39.049Z,96462.80
2019-02-05T03:59:51.476Z,96459.64
2019-02-05T04:01:18.664Z,96465.81
2019-02-05T04:02:41.575Z,96460.06
2019-02-05T04:03:48.107Z,96463.12
2019-02-05T04:05:12.409Z,96458.56
2019-02-05T04:06:39.970Z,96461.41
2019-02-05T04:07:55.265Z,96459.21
2019-02-05T04:09:05.162Z,96465.54
2019-02-05T04:10:44.709Z,96462.87
2019-02-05T04:12:07.220Z,96462.27
2019-02-05T04:13:33.059Z,96463.62
2019-02-05T04:15:12.837Z,96460.81
2019-02-05T04:16:21.909Z,96467.67
2019-02-05T04:17:44.674Z,96465.97
2019-02-05T04:18:59.072Z,96459.55
2019-02-05T04:20:33.860Z,96460.92
2019-02-05T04:21:52.049Z,96457.09
2019-02-05T04:23:16.527Z,96463.82
2019-02-05T04:24:38.047Z,96459.42
2019-02-05T04:25:50.442Z,96463.25
2019-02-05T04:27:16.408Z,96459.51
2019-02-05T04:28:54.079Z,96456.41
2019-02-05T04:30:16.863Z,96450.05
2019-02-05T04:31:26.172Z,96451.03
2019-02-05T04:32:35.646Z,96447.63
2019-02-05T04:33:42.137Z,96443.28
2019-02-05T04:35:05.119Z,96440.74
2019-02-05T04:36:20.665Z,96444.72
2019-02-05T04:37:41.838Z,96444.45
2019-02-05T04:38:51.337Z,96452.77
2019-02-05T04:40:23.636Z,96452.24
2019-02-05T04:41:36.252Z,96457.80
2019-02-05T04:42:45.461Z,96454.45
2019-02-05T04:44:08.358Z,96454.11
2019-02-05T04:45:17.625Z,96451.57
2019-02-05T04:46:35.832Z,96457.21
2019-02-05T04:47:51.559Z,96458.95
2019-02-05T04:49:06.934Z,96458.62
2019-02-05T04:50:31.180Z,96454.06
2019-02-05T04:51:55.530Z,96457.94
2019-02-05T04:53:04.999Z,96456.02
2019-02-05T04:54:25.703Z,96449.93
2019-02-05T04:55:32.186Z,96455.30
2019-02-05T04:56:53.426Z,96456.55
2019-02-05T04:58:08.727Z,96454.27
2019-02-05T04:59:21.292Z,96450.61
2019-02-05T05:00:44.047Z,96448.64
2019-02-05T05:02:05.524Z,96447.13
2019-02-05T05:03:26.672Z,96444.92
2019-02-05T05:04:41.949Z,96441.61
2019-02-05T05:05:56.990Z,96438.12
2019-02-05T05:07:09.565Z,96436.83
2019-02-05T05:08:30.981Z,96431.40
2019-02-05T05:09:52.126Z,96430.13
2019-02-05T05:10:55.997Z,96433.46
2019-02-05T05:11:59.570Z,96433.51
2019-02-05T05:13:03.146Z,96435.25
2019-02-05T05:14:07.025Z,96427.54
2019-02-05T05:15:11.094Z,96428.19
2019-02-05T05:16:14.616Z,96428.91
2019-02-05T05:17:18.059Z,96431.44
2019-02-05T05:18:21.528Z,96438.63
2019-02-05T05:19:25.391Z,96444.42
2019-02-05T05:20:29.473Z,96451.03
2019-02-05T05:21:33.350Z,96453.05
2019-02-05T05:22:37.339Z,96456.54
2019-02-05T05:23:41.393Z,96450.98
2019-02-05T05:24:45.085Z,96453.23
2019-02-05T05:25:48.623Z,96458.90
2019-02-05T05:26:52.191Z,96457.21
2019-02-05T05:28:09.628Z,96454.06
2019-02-05T05:29:03.758Z,96463.63
2019-02-05T05:30:10.241Z,96461.09
2019-02-05T05:31:13.806Z,96460.39
2019-02-05T05:32:17.628Z,96462.19
2019-02-05T05:33:21.118Z,96461.56
2019-02-05T05:34:24.690Z,96467.56
2019-02-05T05:35:40.074Z,96457.99
2019-02-05T05:36:33.490Z,96465.37
2019-02-05T05:37:37.076Z,96461.64
2019-02-05T05:38:40.781Z,96461.86
2019-02-05T05:39:44.262Z,96461.79
2019-02-05T05:40:47.698Z,96461.00
2019-02-05T05:41:51.140Z,96463.59
2019-02-05T05:42:54.594Z,96460.23
2019-02-05T05:43:58.041Z,96462.48
2019-02-05T05:45:01.836Z,96461.98
2019-02-05T05:46:05.453Z,96466.89
2019-02-05T05:47:08.892Z,96468.99
2019-02-05T05:48:12.401Z,96472.91
2019-02-05T05:49:15.924Z,96475.01
2019-02-05T05:50:21.308Z,96466.89
2019-02-05T05:51:24.662Z,96468.41
2019-02-05T05:52:28.107Z,96467.37
2019-02-05T05:53:31.546Z,96465.56
2019-02-05T05:54:35.086Z,96467.30
2019-02-05T05:55:38.578Z,96473.02
2019-02-05T05:56:42.076Z,96474.02
2019-02-05T05:57:45.575Z,96470.58
2019-02-05T05:58:49.009Z,96470.84
2019-02-05T05:59:52.462Z,96467.95
2019-02-05T06:00:55.930Z,96470.58
2019-02-05T06:01:59.413Z,96467.14
2019-02-05T06:03:02.891Z,96472.31
2019-02-05T06:04:06.950Z,96473.69
2019-02-05T06:05:10.827Z,96468.77
2019-02-05T06:06:14.360Z,96469.73
2019-02-05T06:07:17.862Z,96470.42
2019-02-05T06:08:21.308Z,96465.56
2019-02-05T06:09:24.737Z,96466.59
2019-02-05T06:10:28.278Z,96454.38
2019-02-05T06:11:31.695Z,96457.06
2019-02-05T06:12:35.518Z,96460.35
2019-02-05T06:13:39.039Z,96464.48
2019-02-05T06:14:42.605Z,96466.11
2019-02-05T06:15:46.063Z,96477.41
2019-02-05T06:16:49.849Z,96472.28
2019-02-05T06:17:53.294Z,96471.06
2019-02-05T06:18:56.800Z,96479.66
2019-02-05T06:20:00.364Z,96478.15
2019-02-05T06:21:04.146Z,96479.33
2019-02-05T06:22:07.591Z,96480.41
2019-02-05T06:23:11.099Z,96482.03
2019-02-05T06:24:14.672Z,96491.07
2019-02-05T06:25:18.139Z,96487.53
2019-02-05T06:26:21.706Z,96490.70
2019-02-05T06:27:25.138Z,96492.52
2019-02-05T06:28:34.811Z,96492.44
2019-02-05T06:29:34.127Z,96487.23
2019-02-05T06:30:37.912Z,96482.54
2019-02-05T06:31:41.514Z,96481.39
2019-02-05T06:32:45.188Z,96485.75
2019-02-05T06:33:48.698Z,96485.79
2019-02-05T06:34:52.192Z,96484.64
2019-02-05T06:35:55.644Z,96485.53
2019-02-05T06:36:59.163Z,96488.30
2019-02-05T06:38:02.655Z,96492.73
2019-02-05T06:39:07.896Z,96494.09
2019-02-05T06:40:20.027Z,96487.57
2019-02-05T06:41:23.632Z,96493.03
2019-02-05T06:42:27.147Z,96490.16
2019-02-05T06:43:30.980Z,96503.59
2019-02-05T06:44:34.603Z,96499.20
2019-02-05T06:45:41.393Z,96502.04
2019-02-05T06:46:43.696Z,96513.67
2019-02-05T06:47:47.258Z,96511.89
2019-02-05T06:48:50.778Z,96518.59
2019-02-05T06:49:54.210Z,96517.29
2019-02-05T06:50:57.739Z,96522.47
2019-02-05T06:52:01.186Z,96523.60
2019-02-05T06:53:04.769Z,96523.41
2019-02-05T06:54:08.273Z,96521.90
2019-02-05T06:55:14.417Z,96521.12
2019-02-05T06:56:17.874Z,96519.57
2019-02-05T06:57:21.465Z,96527.03
2019-02-05T06:58:25.150Z,96523.60
2019-02-05T06:59:28.585Z,96518.76
2019-02-05T07:00:32.027Z,96527.80
2019-02-05T07:01:35.469Z,96519.05
2019-02-05T07:02:39.001Z,96519.31
2019-02-05T07:03:42.592Z,96522.97
2019-02-05T07:04:46.043Z,96526.36
2019-02-05T07:05:49.492Z,96530.45
2019-02-05T07:06:52.952Z,96536.44
2019-02-05T07:07:56.500Z,96537.21
2019-02-05T07:08:59.933Z,96534.59
2019-02-05T07:10:04.510Z,96536.62
2019-02-05T07:11:08.215Z,96538.88
2019-02-05T07:12:11.952Z,96537.59
2019-02-05T07:13:15.480Z,96547.63
2019-02-05T07:14:20.931Z,96544.05
2019-02-05T07:15:28.412Z,96544.05
2019-02-05T07:16:42.819Z,96550.25
2019-02-05T07:17:50.189Z,96553.09
2019-02-05T07:18:53.405Z,96555.87
2019-02-05T07:19:56.851Z,96563.11
2019-02-05T07:21:00.359Z,96551.47
2019-02-05T07:22:03.869Z,96556.23
2019-02-05T07:23:07.388Z,96551.91
2019-02-05T07:24:10.891Z,96550.65
2019-02-05T07:25:22.306Z,96551.75
2019-02-05T07:26:25.747Z,96550.42
2019-02-05T07:27:29.197Z,96549.61
2019-02-05T07:28:32.724Z,96550.58
2019-02-05T07:29:36.511Z,96554.16
2019-02-05T07:30:40.108Z,96556.48
2019-02-05T07:31:43.610Z,96558.27
2019-02-05T07:32:47.111Z,96559.78
2019-02-05T07:33:50.592Z,96561.59
2019-02-05T07:34:54.068Z,96562.14
2019-02-05T07:35:57.585Z,96562.47
2019-02-05T07:37:01.023Z,96560.01
2019-02-05T07:38:04.864Z,96562.59
2019-02-05T07:39:09.035Z,96561.20
2019-02-05T07:40:18.609Z,96568.05
2019-02-05T07:41:22.284Z,96562.48
2019-02-05T07:42:25.973Z,96565.02
2019-02-05T07:43:29.791Z,96573.58
2019-02-05T07:44:33.419Z,96572.18
2019-02-05T07:45:36.918Z,96575.59
2019-02-05T07:46:40.360Z,96575.35
2019-02-05T07:47:43.929Z,96578.72
2019-02-05T07:48:47.452Z,96581.88
2019-02-05T07:49:50.905Z,96580.44
2019-02-05T07:50:54.340Z,96587.31
2019-02-05T07:51:57.911Z,96586.18
2019-02-05T07:53:01.414Z,96590.65
2019-02-05T07:54:05.198Z,96590.09
2019-02-05T07:55:10.828Z,96585.08
2019-02-05T07:56:14.334Z,96588.95
2019-02-05T07:57:17.893Z,96588.40
2019-02-05T07:58:21.334Z,96587.47
2019-02-05T07:59:24.859Z,96584.59
2019-02-05T08:00:29.770Z,96581.23
2019-02-05T08:01:33.200Z,96587.18
2019-02-05T08:02:36.635Z,96584.59
2019-02-05T08:03:40.059Z,96582.00
2019-02-05T08:04:43.504Z,96584.37
2019-02-05T08:05:46.963Z,96582.86
2019-02-05T08:06:50.608Z,96589.47
2019-02-05T08:07:54.464Z,96585.81
2019-02-05T08:08:57.893Z,96584.27
2019-02-05T08:10:01.539Z,96585.59
2019-02-05T08:11:06.057Z,96592.80
2019-02-05T08:12:09.636Z,96595.53
2019-02-05T08:13:13.209Z,96600.07
2019-02-05T08:14:16.829Z,96597.16
2019-02-05T08:15:28.168Z,96600.44
2019-02-05T08:16:33.964Z,96599.08
2019-02-05T08:17:36.755Z,96607.25
2019-02-05T08:18:40.257Z,96607.69
2019-02-05T08:19:43.779Z,96602.67
2019-02-05T08:20:47.679Z,96604.70
2019-02-05T08:21:51.169Z,96614.23
2019-02-05T08:22:54.846Z,96608.32
2019-02-05T08:23:58.350Z,96606.80
2019-02-05T08:25:01.779Z,96610.98
2019-02-05T08:26:05.478Z,96611.76
2019-02-05T08:27:08.991Z,96611.02
2019-02-05T08:28:12.565Z,96608.09
2019-02-05T08:29:21.767Z,96607.61
2019-02-05T08:30:27.312Z,96607.69
2019-02-05T08:31:30.913Z,96607.88
2019-02-05T08:32:34.363Z,96610.09
2019-02-05T08:33:37.837Z,96612.86
2019-02-05T08:34:41.529Z,96602.40
2019-02-05T08:35:45.101Z,96605.72
2019-02-05T08:36:48.561Z,96609.05
2019-02-05T08:37:52.071Z,96603.31
2019-02-05T08:38:55.640Z,96601.36
2019-02-05T08:39:59.147Z,96598.38
2019-02-05T08:41:02.576Z,96602.73
2019-02-05T08:42:06.163Z,96607.39
2019-02-05T08:43:09.735Z,96607.05
2019-02-05T08:44:13.200Z,96610.34
2019-02-05T08:45:25.383Z,96608.75
2019-02-05T08:46:28.822Z,96615.95
2019-02-05T08:47:32.270Z,96610.95
2019-02-05T08:48:36.126Z,96616.95
2019-02-05T08:49:39.551Z,96607.80
2019-02-05T08:50:43.064Z,96603.33
2019-02-05T08:51:46.489Z,96611.14
2019-02-05T08:52:49.947Z,96608.03
2019-02-05T08:53:53.378Z,96610.48
2019-02-05T08:54:56.804Z,96611.97
2019-02-05T08:56:00.239Z,96609.52
2019-02-05T08:57:03.674Z,96613.31
2019-02-05T08:58:11.985Z,96613.74
2019-02-05T08:59:15.414Z,96608.56
2019-02-05T09:00:21.561Z,96610.63
2019-02-05T09:01:25.306Z,96608.13
2019-02-05T09:02:29.094Z,96613.70
2019-02-05T09:03:32.730Z,96609.42
2019-02-05T09:04:36.151Z,96614.05
2019-02-05T09:05:39.865Z,96615.13
2019-02-05T09:06:43.294Z,96616.29
2019-02-05T09:07:46.806Z,96612.84
2019-02-05T09:08:50.263Z,96616.67
2019-02-05T09:09:53.693Z,96621.22
2019-02-05T09:10:57.198Z,96620.40
2019-02-05T09:12:00.698Z,96623.20
2019-02-05T09:13:04.597Z,96624.97
2019-02-05T09:14:11.496Z,96631.87
2019-02-05T09:15:13.914Z,96629.03
2019-02-05T09:16:17.348Z,96631.87
2019-02-05T09:17:20.920Z,96627.17
2019-02-05T09:18:24.487Z,96624.80
2019-02-05T09:19:27.945Z,96624.23
2019-02-05T09:20:31.491Z,96622.13
2019-02-05T09:21:35.049Z,96619.14
2019-02-05T09:22:38.495Z,96621.12
2019-02-05T09:23:41.921Z,96630.17
2019-02-05T09:24:45.396Z,96619.34
2019-02-05T09:25:48.936Z,96619.98
2019-02-05T09:26:52.528Z,96613.06
2019-02-05T09:27:56.134Z,96623.80
2019-02-05T09:28:59.568Z,96622.85
2019-02-05T09:30:03.464Z,96625.63
2019-02-05T09:31:06.985Z,96629.12
2019-02-05T09:32:10.484Z,96629.98
2019-02-05T09:33:15.759Z,96633.69
2019-02-05T09:34:19.198Z,96624.92
2019-02-05T09:35:22.725Z,96624.78
2019-02-05T09:36:26.264Z,96624.66
2019-02-05T09:37:29.679Z,96623.97
2019-02-05T09:38:33.119Z,96632.83
2019-02-05T09:39:36.630Z,96631.05
2019-02-05T09:40:40.638Z,96622.58
2019-02-05T09:41:44.137Z,96630.41
2019-02-05T09:42:47.713Z,96630.55
2019-02-05T09:43:51.175Z,96628.34
2019-02-05T09:44:54.589Z,96636.02
2019-02-05T09:45:58.038Z,96630.02
2019-02-05T09:47:01.539Z,96641.81
2019-02-05T09:48:05.392Z,96641.46
2019-02-05T09:49:08.825Z,96637.88
2019-02-05T09:50:14.495Z,96638.91
2019-02-05T09:51:17.952Z,96634.59
2019-02-05T09:52:21.474Z,96638.22
2019-02-05T09:53:25.321Z,96641.50
2019-02-05T09:54:28.753Z,96640.73
2019-02-05T09:55:32.192Z,96646.08
2019-02-05T09:56:35.645Z,96646.30
2019-02-05T09:57:39.143Z,96641.20
2019-02-05T09:58:42.578Z,96646.48
2019-02-05T09:59:46.046Z,96646.16
2019-02-05T10:00:49.586Z,96649.11
2019-02-05T10:01:53.099Z,96647.50
2019-02-05T10:02:56.742Z,96648.59
2019-02-05T10:04:00.170Z,96649.14
2019-02-05T10:05:04.658Z,96648.11
2019-02-05T10:06:08.436Z,96652.82
2019-02-05T10:07:11.891Z,96649.09
2019-02-05T10:08:15.346Z,96654.75
2019-02-05T10:09:18.776Z,96650.44
2019-02-05T10:10:23.339Z,96649.70
2019-02-05T10:11:26.837Z,96654.59
2019-02-05T10:12:30.287Z,96653.69
2019-02-05T10:13:33.812Z,96656.88
2019-02-05T10:14:37.250Z,96655.92
2019-02-05T10:15:42.419Z,96657.27
2019-02-05T10:16:45.853Z,96661.25
2019-02-05T10:17:49.440Z,96656.56
2019-02-05T10:18:53.178Z,96652.12
2019-02-05T10:19:56.607Z,96656.27
2019-02-05T10:21:00.116Z,96652.69
2019-02-05T10:22:03.619Z,96648.61
2019-02-05T10:23:07.687Z,96645.29
2019-02-05T10:24:11.109Z,96647.61
2019-02-05T10:25:15.379Z,96651.67
2019-02-05T10:26:18.905Z,96651.49
2019-02-05T10:27:22.318Z,96650.45
2019-02-05T10:28:25.781Z,96650.30
2019-02-05T10:29:29.227Z,96650.17
2019-02-05T10:30:41.044Z,96651.59
2019-02-05T10:31:44.560Z,96655.48
2019-02-05T10:32:48.283Z,96661.15
2019-02-05T10:33:55.337Z,96659.81
2019-02-05T10:34:58.623Z,96661.52
2019-02-05T10:36:02.057Z,96657.77
2019-02-05T10:37:05.647Z,96663.44
2019-02-05T10:38:09.221Z,96651.12
2019-02-05T10:39:13.006Z,96645.52
2019-02-05T10:40:17.199Z,96649.77
2019-02-05T10:41:20.637Z,96651.14
2019-02-05T10:42:24.112Z,96646.06
2019-02-05T10:43:27.560Z,96649.02
2019-02-05T10:44:31.084Z,96645.58
2019-02-05T10:45:34.948Z,96641.59
2019-02-05T10:46:38.797Z,96643.24
2019-02-05T10:47:42.377Z,96639.59
2019-02-05T10:48:45.877Z,96641.94
2019-02-05T10:49:49.333Z,96632.34
2019-02-05T10:50:52.791Z,96631.46
2019-02-05T10:51:56.449Z,96628.09
2019-02-05T10:53:00.009Z,96621.44
2019-02-05T10:54:03.448Z,96616.78
2019-02-05T10:55:10.051Z,96625.30
2019-02-05T10:56:13.655Z,96623.84
2019-02-05T10:57:17.237Z,96572.63
2019-02-05T10:58:20.807Z,96613.66
2019-02-05T10:59:24.666Z,96615.95
2019-02-05T11:00:31.167Z,96618.24
2019-02-05T11:01:34.736Z,96611.39
2019-02-05T11:02:38.167Z,96615.27
2019-02-05T11:03:41.612Z,96609.59
2019-02-05T11:04:45.034Z,96610.58
2019-02-05T11:05:48.486Z,96608.87
2019-02-05T11:06:51.931Z,96612.86
2019-02-05T11:07:55.439Z,96613.12
2019-02-05T11:08:58.897Z,96613.59
2019-02-05T11:10:02.394Z,96613.97
2019-02-05T11:11:05.982Z,96616.92
2019-02-05T11:12:09.686Z,96612.86
2019-02-05T11:13:13.521Z,96619.98
2019-02-05T11:14:17.038Z,96616.64
2019-02-05T11:15:22.711Z,96612.75
2019-02-05T11:16:26.299Z,96609.91
2019-02-05T11:17:29.831Z,96614.80
2019-02-05T11:18:33.273Z,96614.83
2019-02-05T11:19:36.714Z,96613.38
2019-02-05T11:20:40.152Z,96607.25
2019-02-05T11:21:43.612Z,96612.62
2019-02-05T11:22:47.136Z,96617.07
2019-02-05T11:23:50.637Z,96610.59
2019-02-05T11:24:54.170Z,96611.61
2019-02-05T11:25:57.967Z,96607.71
2019-02-05T11:27:01.408Z,96614.75
2019-02-05T11:28:05.044Z,96608.06
2019-02-05T11:29:08.481Z,96571.86
2019-02-05T11:30:20.308Z,96618.87
2019-02-05T11:31:20.510Z,96611.84
2019-02-05T11:32:23.960Z,96611.73
2019-02-05T11:33:27.512Z,96606.31
2019-02-05T11:34:30.973Z,96601.95
2019-02-05T11:35:34.566Z,96599.11
2019-02-05T11:36:38.013Z,96601.87
2019-02-05T11:37:41.607Z,96606.36
2019-02-05T11:38:45.405Z,96597.01
2019-02-05T11:39:48.864Z,96605.55
2019-02-05T11:40:52.362Z,96602.44
2019-02-05T11:41:55.792Z,96602.30
2019-02-05T11:42:59.326Z,96599.03
2019-02-05T11:44:02.781Z,96593.01
2019-02-05T11:45:09.267Z,96598.70
2019-02-05T11:46:12.839Z,96596.14
2019-02-05T11:47:16.350Z,96595.74
2019-02-05T11:48:20.138Z,96592.92
2019-02-05T11:49:23.567Z,96587.56
2019-02-05T11:50:27.081Z,96587.09
2019-02-05T11:51:30.897Z,96589.29
2019-02-05T11:52:34.772Z,96589.00
2019-02-05T11:53:38.375Z,96588.22
2019-02-05T11:54:41.823Z,96593.50
2019-02-05T11:55:45.419Z,96584.19
2019-02-05T11:56:48.920Z,96582.47
2019-02-05T11:57:52.449Z,96581.66
2019-02-05T11:58:55.900Z,96581.30
2019-02-05T11:59:59.385Z,96577.45
2019-02-05T12:01:07.540Z,96581.86
2019-02-05T12:02:11.118Z,96576.42
2019-02-05T12:03:15.292Z,96576.48
2019-02-05T12:04:18.787Z,96580.44
2019-02-05T12:05:22.414Z,96577.00
2019-02-05T12:06:26.027Z,96580.83
2019-02-05T12:07:29.552Z,96581.30
2019-02-05T12:08:33.122Z,96579.69
2019-02-05T12:09:36.647Z,96579.02
2019-02-05T12:10:40.144Z,96576.62
2019-02-05T12:11:43.596Z,96574.12
2019-02-05T12:12:47.109Z,96571.61
2019-02-05T12:13:50.611Z,96572.91
2019-02-05T12:14:54.065Z,96577.92
2019-02-05T12:15:57.584Z,96574.41
2019-02-05T12:17:01.193Z,96578.02
2019-02-05T12:18:05.133Z,96569.28
2019-02-05T12:19:08.560Z,96581.91
2019-02-05T12:20:17.274Z,96567.18
2019-02-05T12:21:20.704Z,96573.25
2019-02-05T12:22:24.217Z,96584.56
2019-02-05T12:23:27.792Z,96579.95
2019-02-05T12:24:31.297Z,96584.70
2019-02-05T12:25:34.889Z,96585.23
2019-02-05T12:26:38.461Z,96587.51
2019-02-05T12:27:42.042Z,96588.66
2019-02-05T12:28:45.480Z,96591.55
2019-02-05T12:29:48.986Z,96593.48
2019-02-05T12:30:52.714Z,96592.16
2019-02-05T12:31:56.283Z,96589.98
2019-02-05T12:33:01.793Z,96595.91
2019-02-05T12:34:05.555Z,96592.59
2019-02-05T12:35:09.127Z,96584.09
2019-02-05T12:36:12.581Z,96581.97
2019-02-05T12:37:16.147Z,96586.03
2019-02-05T12:38:19.667Z,96585.36
2019-02-05T12:39:23.272Z,96583.14
2019-02-05T12:40:26.844Z,96580.23
2019-02-05T12:41:30.359Z,96582.11
2019-02-05T12:42:33.807Z,96582.95
2019-02-05T12:43:37.712Z,96582.31
2019-02-05T12:44:41.547Z,96568.40